SWA3604 KECP-KBNA
Flight info
| Callsign | SWA3604 |
|---|---|
| Flight time | 1h 4m |
| Altitude | 34000 |
| Route | MGMRY RKMRT SWFFT3 |
| Aircraft | B738/M-SADE2E3GIJ4RWZ/LB1D1 |
Departure
| Time | 2026-04-23 23:03 |
|---|---|
| Airport | Northwest Florida Beaches International Airport (KECP) |
Arrival
| Time | 2026-04-24 00:08 |
|---|---|
| Airport | Nashville International Airport (KBNA) |
| Time | Latitude | Longitude | Altitude | Speed | Heading |
|---|---|---|---|---|---|
| 2026-04-23 22:46 | 30.35492 | -85.79877 | 65 ft | 0 kts | 321° |
| 2026-04-23 22:55 | 30.35480 | -85.79865 | 56 ft | 4 kts | 317° |
| 2026-04-23 22:55 | 30.35460 | -85.79846 | 59 ft | 4 kts | 344° |
| 2026-04-23 22:56 | 30.35463 | -85.79829 | 56 ft | 3 kts | 66° |
| 2026-04-23 22:56 | 30.35463 | -85.79828 | 56 ft | 0 kts | 65° |
| 2026-04-23 22:58 | 30.35479 | -85.79787 | 62 ft | 14 kts | 65° |
| 2026-04-23 22:58 | 30.35545 | -85.79657 | 63 ft | 21 kts | 16° |
| 2026-04-23 22:59 | 30.35684 | -85.79704 | 63 ft | 21 kts | 339° |
| 2026-04-23 22:59 | 30.35817 | -85.79762 | 59 ft | 20 kts | 339° |
| 2026-04-23 22:59 | 30.35947 | -85.79818 | 66 ft | 20 kts | 339° |
| 2026-04-23 22:59 | 30.36072 | -85.79872 | 62 ft | 19 kts | 339° |
| 2026-04-23 23:00 | 30.36193 | -85.79923 | 59 ft | 18 kts | 340° |
| 2026-04-23 23:00 | 30.36310 | -85.79974 | 65 ft | 18 kts | 338° |
| 2026-04-23 23:00 | 30.36422 | -85.80024 | 63 ft | 17 kts | 340° |
| 2026-04-23 23:00 | 30.36531 | -85.80071 | 62 ft | 16 kts | 339° |
| 2026-04-23 23:01 | 30.36636 | -85.80116 | 59 ft | 16 kts | 339° |
| 2026-04-23 23:01 | 30.36737 | -85.80160 | 65 ft | 15 kts | 339° |
| 2026-04-23 23:01 | 30.36833 | -85.80202 | 59 ft | 15 kts | 339° |
| 2026-04-23 23:01 | 30.36926 | -85.80242 | 64 ft | 14 kts | 339° |
| 2026-04-23 23:02 | 30.37015 | -85.80277 | 60 ft | 13 kts | 356° |
| 2026-04-23 23:02 | 30.37071 | -85.80206 | 68 ft | 13 kts | 68° |
| 2026-04-23 23:02 | 30.37076 | -85.80110 | 73 ft | 11 kts | 126° |
| 2026-04-23 23:02 | 30.37057 | -85.80096 | 73 ft | 0 kts | 156° |
| 2026-04-23 23:03 | 30.37015 | -85.80076 | 71 ft | 31 kts | 159° |
| 2026-04-23 23:03 | 30.36545 | -85.79873 | 71 ft | 110 kts | 159° |
| 2026-04-23 23:03 | 30.35634 | -85.79479 | 262 ft | 158 kts | 160° |
| 2026-04-23 23:03 | 30.34591 | -85.79031 | 1155 ft | 165 kts | 160° |
| 2026-04-23 23:04 | 30.33670 | -85.78253 | 2033 ft | 173 kts | 128° |
| 2026-04-23 23:04 | 30.33290 | -85.76802 | 2307 ft | 210 kts | 90° |
| 2026-04-23 23:04 | 30.33766 | -85.75098 | 2503 ft | 241 kts | 56° |
| 2026-04-23 23:04 | 30.35157 | -85.73876 | 2811 ft | 267 kts | 17° |
| 2026-04-23 23:05 | 30.37018 | -85.73859 | 3504 ft | 273 kts | 341° |
| 2026-04-23 23:05 | 30.38671 | -85.74930 | 4378 ft | 273 kts | 323° |
| 2026-04-23 23:05 | 30.40220 | -85.76276 | 5087 ft | 282 kts | 322° |
| 2026-04-23 23:05 | 30.41787 | -85.77671 | 5882 ft | 285 kts | 322° |
| 2026-04-23 23:06 | 30.43406 | -85.78988 | 6860 ft | 285 kts | 327° |
| 2026-04-23 23:06 | 30.45123 | -85.80149 | 7868 ft | 284 kts | 331° |
| 2026-04-23 23:06 | 30.46908 | -85.81150 | 8854 ft | 287 kts | 335° |
| 2026-04-23 23:06 | 30.48760 | -85.82030 | 9861 ft | 288 kts | 338° |
| 2026-04-23 23:07 | 30.50666 | -85.82822 | 10591 ft | 298 kts | 340° |
| 2026-04-23 23:07 | 30.52730 | -85.83594 | 10797 ft | 325 kts | 342° |
| 2026-04-23 23:07 | 30.54984 | -85.84367 | 10980 ft | 350 kts | 343° |
| 2026-04-23 23:07 | 30.57399 | -85.85140 | 11299 ft | 367 kts | 344° |
| 2026-04-23 23:08 | 30.59894 | -85.85897 | 11942 ft | 373 kts | 345° |
| 2026-04-23 23:08 | 30.62424 | -85.86636 | 12709 ft | 376 kts | 345° |
| 2026-04-23 23:08 | 30.64976 | -85.87364 | 13489 ft | 380 kts | 346° |
| 2026-04-23 23:08 | 30.67562 | -85.88092 | 14169 ft | 385 kts | 346° |
| 2026-04-23 23:09 | 30.70171 | -85.88822 | 14935 ft | 387 kts | 345° |
| 2026-04-23 23:09 | 30.72794 | -85.89554 | 15704 ft | 389 kts | 345° |
| 2026-04-23 23:09 | 30.75428 | -85.90289 | 16494 ft | 391 kts | 345° |
| 2026-04-23 23:09 | 30.78085 | -85.91031 | 17187 ft | 395 kts | 345° |
| 2026-04-23 23:10 | 30.80775 | -85.91783 | 17844 ft | 399 kts | 345° |
| 2026-04-23 23:10 | 30.83492 | -85.92544 | 18500 ft | 403 kts | 345° |
| 2026-04-23 23:10 | 30.86229 | -85.93311 | 19084 ft | 406 kts | 345° |
| 2026-04-23 23:10 | 30.88989 | -85.94086 | 19657 ft | 410 kts | 345° |
| 2026-04-23 23:11 | 30.91772 | -85.94867 | 20189 ft | 414 kts | 345° |
| 2026-04-23 23:11 | 30.94586 | -85.95657 | 20713 ft | 418 kts | 346° |
| 2026-04-23 23:11 | 30.97424 | -85.96455 | 21298 ft | 420 kts | 346° |
| 2026-04-23 23:11 | 31.00279 | -85.97257 | 21831 ft | 424 kts | 346° |
| 2026-04-23 23:12 | 31.03162 | -85.98067 | 22372 ft | 427 kts | 346° |
| 2026-04-23 23:12 | 31.06025 | -85.98873 | 22841 ft | 431 kts | 346° |
| 2026-04-23 23:12 | 31.08950 | -85.99696 | 23347 ft | 434 kts | 346° |
| 2026-04-23 23:12 | 31.11899 | -86.00527 | 23763 ft | 438 kts | 346° |
| 2026-04-23 23:13 | 31.14867 | -86.01363 | 24203 ft | 440 kts | 346° |
| 2026-04-23 23:13 | 31.17852 | -86.02205 | 24581 ft | 443 kts | 346° |
| 2026-04-23 23:13 | 31.20848 | -86.03051 | 24985 ft | 445 kts | 346° |
| 2026-04-23 23:13 | 31.23867 | -86.03903 | 25415 ft | 447 kts | 346° |
| 2026-04-23 23:14 | 31.26904 | -86.04762 | 25795 ft | 450 kts | 346° |
| 2026-04-23 23:14 | 31.29952 | -86.05624 | 26180 ft | 452 kts | 346° |
| 2026-04-23 23:14 | 31.33017 | -86.06492 | 26529 ft | 455 kts | 346° |
| 2026-04-23 23:14 | 31.36101 | -86.07365 | 26895 ft | 457 kts | 346° |
| 2026-04-23 23:15 | 31.39205 | -86.08245 | 27216 ft | 460 kts | 346° |
| 2026-04-23 23:15 | 31.42318 | -86.09128 | 27569 ft | 462 kts | 346° |
| 2026-04-23 23:15 | 31.45453 | -86.10018 | 27883 ft | 465 kts | 346° |
| 2026-04-23 23:15 | 31.48603 | -86.10913 | 28214 ft | 467 kts | 346° |
| 2026-04-23 23:16 | 31.51732 | -86.11803 | 28463 ft | 471 kts | 346° |
| 2026-04-23 23:16 | 31.54924 | -86.12711 | 28805 ft | 472 kts | 346° |
| 2026-04-23 23:16 | 31.58109 | -86.13617 | 29324 ft | 469 kts | 346° |
| 2026-04-23 23:16 | 31.61272 | -86.14517 | 29879 ft | 467 kts | 345° |
| 2026-04-23 23:17 | 31.64419 | -86.15414 | 30367 ft | 465 kts | 346° |
| 2026-04-23 23:17 | 31.67562 | -86.16309 | 30765 ft | 464 kts | 346° |
| 2026-04-23 23:17 | 31.70697 | -86.17204 | 31181 ft | 463 kts | 346° |
| 2026-04-23 23:17 | 31.73826 | -86.18099 | 31594 ft | 462 kts | 346° |
| 2026-04-23 23:18 | 31.76939 | -86.18989 | 31984 ft | 461 kts | 345° |
| 2026-04-23 23:18 | 31.80054 | -86.19879 | 32425 ft | 459 kts | 345° |
| 2026-04-23 23:18 | 31.83154 | -86.20767 | 32835 ft | 458 kts | 345° |
| 2026-04-23 23:18 | 31.86250 | -86.21654 | 33249 ft | 457 kts | 346° |
| 2026-04-23 23:19 | 31.89338 | -86.22540 | 33633 ft | 457 kts | 345° |
| 2026-04-23 23:19 | 31.92421 | -86.23424 | 34012 ft | 456 kts | 346° |
| 2026-04-23 23:19 | 31.95515 | -86.24313 | 34024 ft | 459 kts | 345° |
| 2026-04-23 23:20 | 32.01702 | -86.26091 | 34016 ft | 455 kts | 346° |
| 2026-04-23 23:20 | 32.07851 | -86.27860 | 34036 ft | 455 kts | 346° |
| 2026-04-23 23:21 | 32.14004 | -86.29634 | 34035 ft | 455 kts | 345° |
| 2026-04-23 23:21 | 32.20224 | -86.30962 | 34023 ft | 457 kts | 2° |
| 2026-04-23 23:22 | 32.26487 | -86.29638 | 34035 ft | 460 kts | 16° |
| 2026-04-23 23:22 | 32.32402 | -86.26729 | 34045 ft | 462 kts | 25° |
| 2026-04-23 23:23 | 32.38110 | -86.23206 | 34028 ft | 463 kts | 26° |
| 2026-04-23 23:23 | 32.43852 | -86.19711 | 34028 ft | 464 kts | 25° |
| 2026-04-23 23:24 | 32.49648 | -86.16334 | 34035 ft | 464 kts | 25° |
| 2026-04-23 23:24 | 32.55469 | -86.13005 | 34029 ft | 464 kts | 25° |
| 2026-04-23 23:25 | 32.61286 | -86.09682 | 34035 ft | 464 kts | 25° |
| 2026-04-23 23:25 | 32.67097 | -86.06351 | 34041 ft | 464 kts | 24° |
| 2026-04-23 23:26 | 32.72906 | -86.03011 | 34046 ft | 464 kts | 25° |
| 2026-04-23 23:26 | 32.78669 | -85.99692 | 34053 ft | 464 kts | 24° |
| 2026-04-23 23:27 | 32.84475 | -85.96344 | 34052 ft | 464 kts | 25° |
| 2026-04-23 23:27 | 32.90282 | -85.92990 | 34055 ft | 464 kts | 24° |
| 2026-04-23 23:28 | 32.96095 | -85.89628 | 34058 ft | 465 kts | 25° |
| 2026-04-23 23:28 | 33.01918 | -85.86255 | 34053 ft | 466 kts | 24° |
| 2026-04-23 23:29 | 33.07752 | -85.82871 | 34040 ft | 467 kts | 25° |
| 2026-04-23 23:29 | 33.13593 | -85.79477 | 34043 ft | 468 kts | 25° |
| 2026-04-23 23:30 | 33.19448 | -85.76071 | 34042 ft | 468 kts | 25° |
| 2026-04-23 23:30 | 33.25309 | -85.72655 | 34044 ft | 469 kts | 25° |
| 2026-04-23 23:31 | 33.31173 | -85.69233 | 34049 ft | 469 kts | 25° |
| 2026-04-23 23:31 | 33.37040 | -85.65804 | 34049 ft | 469 kts | 25° |
| 2026-04-23 23:32 | 33.42909 | -85.62368 | 34049 ft | 469 kts | 25° |
| 2026-04-23 23:32 | 33.48771 | -85.58932 | 34051 ft | 469 kts | 25° |
| 2026-04-23 23:33 | 33.54634 | -85.55489 | 34051 ft | 469 kts | 25° |
| 2026-04-23 23:33 | 33.60488 | -85.52047 | 34056 ft | 469 kts | 25° |
| 2026-04-23 23:34 | 33.66346 | -85.48597 | 34043 ft | 469 kts | 25° |
| 2026-04-23 23:34 | 33.72202 | -85.45143 | 34038 ft | 469 kts | 25° |
| 2026-04-23 23:35 | 33.78058 | -85.41683 | 34048 ft | 469 kts | 25° |
| 2026-04-23 23:35 | 33.83910 | -85.38221 | 34034 ft | 469 kts | 25° |
| 2026-04-23 23:36 | 33.89759 | -85.34755 | 34041 ft | 469 kts | 25° |
| 2026-04-23 23:36 | 33.95605 | -85.31285 | 34027 ft | 468 kts | 25° |
| 2026-04-23 23:37 | 34.01450 | -85.27810 | 34041 ft | 468 kts | 25° |
| 2026-04-23 23:37 | 34.07265 | -85.24395 | 34020 ft | 468 kts | 23° |
| 2026-04-23 23:38 | 34.13320 | -85.21537 | 34031 ft | 467 kts | 17° |
| 2026-04-23 23:38 | 34.19545 | -85.19286 | 34032 ft | 467 kts | 14° |
| 2026-04-23 23:39 | 34.25780 | -85.17071 | 34036 ft | 467 kts | 16° |
| 2026-04-23 23:39 | 34.31971 | -85.14645 | 34033 ft | 468 kts | 17° |
| 2026-04-23 23:40 | 34.38137 | -85.12128 | 34049 ft | 468 kts | 18° |
| 2026-04-23 23:40 | 34.44312 | -85.09603 | 34035 ft | 468 kts | 17° |
| 2026-04-23 23:41 | 34.50494 | -85.07087 | 34037 ft | 469 kts | 17° |
| 2026-04-23 23:41 | 34.55634 | -85.04994 | 34045 ft | 469 kts | 17° |
| 2026-04-23 23:42 | 34.61843 | -85.02582 | 34004 ft | 468 kts | 9° |
| 2026-04-23 23:42 | 34.65058 | -85.02568 | 34048 ft | 462 kts | 348° |
| 2026-04-23 23:42 | 34.68139 | -85.03625 | 34017 ft | 460 kts | 335° |
| 2026-04-23 23:43 | 34.73578 | -85.07623 | 34021 ft | 457 kts | 323° |
| 2026-04-23 23:43 | 34.78798 | -85.12043 | 34030 ft | 458 kts | 325° |
| 2026-04-23 23:43 | 34.81502 | -85.14137 | 33781 ft | 463 kts | 327° |
| 2026-04-23 23:44 | 34.84245 | -85.16177 | 33525 ft | 460 kts | 327° |
| 2026-04-23 23:44 | 34.86969 | -85.18200 | 33262 ft | 459 kts | 327° |
| 2026-04-23 23:44 | 34.89683 | -85.20244 | 32529 ft | 459 kts | 327° |
| 2026-04-23 23:44 | 34.92383 | -85.22312 | 31794 ft | 458 kts | 327° |
| 2026-04-23 23:45 | 34.95074 | -85.24397 | 30950 ft | 459 kts | 327° |
| 2026-04-23 23:45 | 34.97767 | -85.26497 | 30096 ft | 460 kts | 327° |
| 2026-04-23 23:45 | 35.00470 | -85.28609 | 29047 ft | 462 kts | 327° |
| 2026-04-23 23:45 | 35.03176 | -85.30722 | 28033 ft | 462 kts | 327° |
| 2026-04-23 23:46 | 35.05889 | -85.32841 | 26992 ft | 463 kts | 327° |
| 2026-04-23 23:46 | 35.08604 | -85.34961 | 26091 ft | 462 kts | 327° |
| 2026-04-23 23:46 | 35.11291 | -85.37060 | 25365 ft | 456 kts | 327° |
| 2026-04-23 23:46 | 35.13954 | -85.39141 | 24630 ft | 452 kts | 327° |
| 2026-04-23 23:47 | 35.16560 | -85.41255 | 23942 ft | 448 kts | 323° |
| 2026-04-23 23:47 | 35.18982 | -85.43578 | 23420 ft | 438 kts | 319° |
| 2026-04-23 23:47 | 35.21221 | -85.46123 | 22914 ft | 444 kts | 314° |
| 2026-04-23 23:47 | 35.23337 | -85.48899 | 22410 ft | 447 kts | 311° |
| 2026-04-23 23:48 | 35.25330 | -85.51798 | 21918 ft | 442 kts | 309° |
| 2026-04-23 23:48 | 35.27282 | -85.54679 | 21446 ft | 438 kts | 310° |
| 2026-04-23 23:48 | 35.29263 | -85.57493 | 20974 ft | 435 kts | 311° |
| 2026-04-23 23:48 | 35.31281 | -85.60230 | 20516 ft | 432 kts | 312° |
| 2026-04-23 23:49 | 35.35386 | -85.65550 | 19600 ft | 427 kts | 313° |
| 2026-04-23 23:49 | 35.37439 | -85.68166 | 19138 ft | 425 kts | 313° |
| 2026-04-23 23:49 | 35.39486 | -85.70773 | 18667 ft | 423 kts | 313° |
| 2026-04-23 23:50 | 35.41503 | -85.73348 | 18196 ft | 414 kts | 313° |
| 2026-04-23 23:50 | 35.43492 | -85.75896 | 17703 ft | 414 kts | 313° |
| 2026-04-23 23:50 | 35.45483 | -85.78454 | 17234 ft | 417 kts | 313° |
| 2026-04-23 23:50 | 35.47483 | -85.81028 | 16767 ft | 414 kts | 313° |
| 2026-04-23 23:51 | 35.49454 | -85.83565 | 16310 ft | 407 kts | 312° |
| 2026-04-23 23:51 | 35.51384 | -85.86049 | 15875 ft | 397 kts | 312° |
| 2026-04-23 23:51 | 35.53262 | -85.88469 | 15449 ft | 387 kts | 313° |
| 2026-04-23 23:51 | 35.55076 | -85.90809 | 15041 ft | 379 kts | 312° |
| 2026-04-23 23:52 | 35.56885 | -85.93180 | 14602 ft | 373 kts | 311° |
| 2026-04-23 23:52 | 35.58601 | -85.95478 | 14183 ft | 367 kts | 311° |
| 2026-04-23 23:52 | 35.60309 | -85.97781 | 13750 ft | 362 kts | 310° |
| 2026-04-23 23:52 | 35.61996 | -86.00053 | 13286 ft | 358 kts | 310° |
| 2026-04-23 23:53 | 35.63666 | -86.02295 | 12844 ft | 353 kts | 310° |
| 2026-04-23 23:53 | 35.65315 | -86.04505 | 12421 ft | 349 kts | 310° |
| 2026-04-23 23:53 | 35.66945 | -86.06692 | 12021 ft | 344 kts | 310° |
| 2026-04-23 23:53 | 35.68553 | -86.08848 | 11618 ft | 340 kts | 311° |
| 2026-04-23 23:54 | 35.70144 | -86.10981 | 11222 ft | 336 kts | 310° |
| 2026-04-23 23:54 | 35.71695 | -86.13101 | 11026 ft | 326 kts | 308° |
| 2026-04-23 23:54 | 35.73069 | -86.15230 | 11035 ft | 310 kts | 304° |
| 2026-04-23 23:54 | 35.74308 | -86.17338 | 10856 ft | 299 kts | 303° |
| 2026-04-23 23:55 | 35.75498 | -86.19405 | 10501 ft | 293 kts | 303° |
| 2026-04-23 23:55 | 35.76676 | -86.21439 | 10142 ft | 291 kts | 303° |
| 2026-04-23 23:55 | 35.77858 | -86.23459 | 9778 ft | 291 kts | 303° |
| 2026-04-23 23:55 | 35.79051 | -86.25479 | 9386 ft | 292 kts | 303° |
| 2026-04-23 23:56 | 35.80248 | -86.27494 | 8998 ft | 291 kts | 303° |
| 2026-04-23 23:56 | 35.81447 | -86.29507 | 8618 ft | 292 kts | 303° |
| 2026-04-23 23:56 | 35.82649 | -86.31522 | 8242 ft | 292 kts | 304° |
| 2026-04-23 23:56 | 35.83849 | -86.33532 | 7876 ft | 291 kts | 304° |
| 2026-04-23 23:57 | 35.85043 | -86.35529 | 7531 ft | 287 kts | 303° |
| 2026-04-23 23:57 | 35.86213 | -86.37487 | 7288 ft | 281 kts | 303° |
| 2026-04-23 23:57 | 35.87367 | -86.39419 | 7045 ft | 278 kts | 303° |
| 2026-04-23 23:57 | 35.88509 | -86.41333 | 6807 ft | 276 kts | 303° |
| 2026-04-23 23:58 | 35.89646 | -86.43241 | 6564 ft | 277 kts | 303° |
| 2026-04-23 23:58 | 35.90792 | -86.45163 | 6316 ft | 280 kts | 303° |
| 2026-04-23 23:58 | 35.91946 | -86.47100 | 6077 ft | 281 kts | 303° |
| 2026-04-23 23:58 | 35.93100 | -86.49037 | 5823 ft | 280 kts | 303° |
| 2026-04-23 23:59 | 35.94249 | -86.50968 | 5565 ft | 278 kts | 303° |
| 2026-04-23 23:59 | 35.95392 | -86.52888 | 5320 ft | 277 kts | 303° |
| 2026-04-23 23:59 | 35.96531 | -86.54804 | 5083 ft | 277 kts | 303° |
| 2026-04-23 23:59 | 35.97666 | -86.56714 | 4841 ft | 277 kts | 303° |
| 2026-04-24 00:00 | 35.98863 | -86.58577 | 4577 ft | 278 kts | 313° |
| 2026-04-24 00:00 | 36.00546 | -86.59763 | 4280 ft | 285 kts | 347° |
| 2026-04-24 00:00 | 36.02506 | -86.59593 | 4102 ft | 288 kts | 18° |
| 2026-04-24 00:00 | 36.04379 | -86.58726 | 4092 ft | 286 kts | 22° |
| 2026-04-24 00:01 | 36.06231 | -86.57907 | 4030 ft | 287 kts | 18° |
| 2026-04-24 00:01 | 36.08149 | -86.57153 | 4039 ft | 285 kts | 18° |
| 2026-04-24 00:01 | 36.10017 | -86.56426 | 3894 ft | 287 kts | 17° |
| 2026-04-24 00:01 | 36.11920 | -86.55703 | 3646 ft | 285 kts | 16° |
| 2026-04-24 00:02 | 36.13815 | -86.55006 | 3404 ft | 283 kts | 17° |
| 2026-04-24 00:02 | 36.15691 | -86.54306 | 3178 ft | 281 kts | 17° |
| 2026-04-24 00:02 | 36.17556 | -86.53604 | 2977 ft | 280 kts | 18° |
| 2026-04-24 00:02 | 36.19439 | -86.52888 | 2748 ft | 277 kts | 18° |
| 2026-04-24 00:03 | 36.21221 | -86.52208 | 2504 ft | 266 kts | 17° |
| 2026-04-24 00:03 | 36.22982 | -86.51662 | 2251 ft | 257 kts | 1° |
| 2026-04-24 00:03 | 36.24661 | -86.52090 | 2075 ft | 241 kts | 327° |
| 2026-04-24 00:03 | 36.25798 | -86.53441 | 2030 ft | 219 kts | 294° |
| 2026-04-24 00:04 | 36.26357 | -86.55120 | 2027 ft | 205 kts | 286° |
| 2026-04-24 00:04 | 36.26826 | -86.56787 | 2044 ft | 206 kts | 285° |
| 2026-04-24 00:04 | 36.27268 | -86.58474 | 2042 ft | 204 kts | 276° |
| 2026-04-24 00:04 | 36.27113 | -86.60143 | 1997 ft | 193 kts | 235° |
| 2026-04-24 00:05 | 36.26068 | -86.61088 | 2006 ft | 190 kts | 193° |
| 2026-04-24 00:05 | 36.24814 | -86.61310 | 2013 ft | 176 kts | 192° |
| 2026-04-24 00:05 | 36.23655 | -86.61763 | 2033 ft | 173 kts | 198° |
| 2026-04-24 00:05 | 36.22525 | -86.62241 | 2009 ft | 173 kts | 197° |
| 2026-04-24 00:06 | 36.21362 | -86.62713 | 2012 ft | 177 kts | 198° |
| 2026-04-24 00:06 | 36.20206 | -86.63177 | 1984 ft | 170 kts | 197° |
| 2026-04-24 00:06 | 36.19124 | -86.63612 | 1735 ft | 157 kts | 196° |
| 2026-04-24 00:06 | 36.18132 | -86.64011 | 1556 ft | 143 kts | 197° |
| 2026-04-24 00:07 | 36.17194 | -86.64386 | 1367 ft | 143 kts | 197° |
| 2026-04-24 00:07 | 36.16241 | -86.64769 | 1199 ft | 145 kts | 199° |
| 2026-04-24 00:07 | 36.15280 | -86.65157 | 999 ft | 146 kts | 198° |
| 2026-04-24 00:07 | 36.14321 | -86.65542 | 787 ft | 142 kts | 198° |
| 2026-04-24 00:08 | 36.13375 | -86.65926 | 615 ft | 143 kts | 198° |
| 2026-04-24 00:08 | 36.12481 | -86.66287 | 570 ft | 123 kts | 198° |
| 2026-04-24 00:08 | 36.11902 | -86.66517 | 579 ft | 41 kts | 202° |
| 2026-04-24 00:08 | 36.11849 | -86.66626 | 580 ft | 0 kts | 288° |
| 2026-04-24 00:09 | 36.11849 | -86.66627 | 580 ft | 1 kts | 288° |
| 2026-04-24 00:09 | 36.11930 | -86.66648 | 581 ft | 33 kts | 18° |
| 2026-04-24 00:10 | 36.12168 | -86.66552 | 569 ft | 38 kts | 18° |
| 2026-04-24 00:10 | 36.12304 | -86.66634 | 573 ft | 24 kts | 288° |
| 2026-04-24 00:10 | 36.12358 | -86.66830 | 572 ft | 25 kts | 297° |
| 2026-04-24 00:10 | 36.12495 | -86.66941 | 571 ft | 25 kts | 17° |
| 2026-04-24 00:11 | 36.12651 | -86.66912 | 573 ft | 23 kts | 343° |
| 2026-04-24 00:11 | 36.12719 | -86.66951 | 574 ft | 5 kts | 1° |
| 2026-04-24 00:11 | 36.12745 | -86.66935 | 568 ft | 0 kts | 32° |